Tiempo atmosférico en la estación meteorológica de Aldeanueva de Serrezuela, Segovia (1135 m.)



Fecha
DESCASC
Temp. máxima en grados centígrados (hora)
DESCASC
Temp. mínima en grados centígrados (hora)
DESCASC
Temp. media en grados centígrados
DESCASC
Racha de viento máxima en m/sg (hora)
DESCASC
Velocidad máxima media en intervalos de 10 minutos(hora)
DESCASC
Precipitaciones diarias en mm
DESCASC
Precipitaciones de 00:00 a 06:00 en mm
DESCASC
Precipitaciones de 06:00 a 12:00 en mm
DESCASC
Precipitaciones de 12:00 a 18:00 en mm
DESCASC
Precipitaciones de 18:00 a 24:00 en mm
DESCASC
29-10-2020 16.4 (14:50) 5.5 (07:40) 10.9 5.28 (10:50) 3.33 (08:40) 0 0 0 0 0
28-10-2020 12.2 (15:40) 8.2 (01:50) 10.2 11.94 (08:10) 7.22 (08:10) 1.6 0.8 0.6 0.2 0
27-10-2020 8.4 (23:50) 2.9 (00:00) 5.6 11.94 (09:10) 8.06 (14:50) 0 0 0 0 0
26-10-2020 6.9 (17:20) 2.1 (00:00) 4.5 12.22 (05:00) 7.78 (05:00) 0.2 0 0 0.2 0
25-10-2020 11.6 (14:20) 4.1 (00:00) 7.9 18.61 (04:20) 11.67 (13:10) 9.8 0 0.4 8 1.4
24-10-2020 12.1 (17:10) 5.4 (00:00) 8.8 12.22 (23:40) 8.06 (23:59) 0 0 0 0 0
23-10-2020 10.3 (13:50) 5.9 (00:00) 8.1 11.67 (02:00) 7.5 (02:00) 6.6 5.4 0.4 0.8 0
22-10-2020 15.2 (16:10) 8.5 (00:00) 11.8 10.83 (00:20) 6.39 (12:20) 15 6 0.2 3.6 5.2
21-10-2020 15.2 (13:20) 9.9 (00:00) 12.5 26.67 (01:20) 13.06 (01:20) 11.6 11.6 0 0 0
20-10-2020 15.8 (01:10) 10.3 (00:00) 13.1 23.61 (20:20) 14.44 (20:10) 13.2 0.8 4.2 7 1.2
19-10-2020 21.3 (15:40) 11.3 (00:00) 16.3 20 (13:50) 12.5 (13:50) 0 0 0 0 0
18-10-2020 18 (16:10) 6.6 (00:00) 12.3 7.5 (23:59) 5.56 (23:59) 0 0 0 0 0
17-10-2020 14.7 (17:00) 3.1 (00:00) 8.9 8.89 (14:50) 5.28 (16:20) 0 0 0 0 0
16-10-2020 10.8 (17:30) 0.4 (00:00) 5.6 6.39 (16:00) 3.61 (12:10) 0 0 0 0 0
15-10-2020 8.9 (15:20) 1.2 (00:00) 5 8.89 (19:00) 5.83 (18:50) 0 0 0 0 0
14-10-2020 11.9 (16:00) 3 (00:00) 7.4 9.17 (16:10) 5.28 (16:10) 0 0 0 0 0
13-10-2020 16 (18:20) 7 (00:00) 11.5 10.28 (02:50) 6.94 (02:30) 0 0 0 0 0
12-10-2020 12.7 (17:30) 2.6 (00:00) 7.6 8.06 (15:50) 5 (23:00) 0 0 0 0 0
11-10-2020 11.2 (15:30) 2.7 (00:00) 6.9 11.67 (11:40) 7.5 (11:50) 0 0 0 0 0
10-10-2020 16.9 (15:30) 5.1 (00:00) 11 9.17 (17:00) 5.83 (16:50) 0 0 0 0 0
09-10-2020 21.9 (16:30) 12.3 (00:00) 17.1 6.67 (13:50) 4.17 (09:00) 0 0 0 0 0
08-10-2020 21.7 (15:40) 12.7 (00:00) 17.2 8.89 (13:10) 5.83 (13:10) 0 0 0 0 0
07-10-2020 20.2 (17:50) 9.9 (00:00) 15.1 6.67 (01:50) 4.72 (01:50) 0 0 0 0 0
06-10-2020 18.5 (16:50) 10.6 (00:00) 14.6 12.5 (09:40) 8.06 (09:40) 0 0 0 0 0
05-10-2020 13.7 (17:50) 4.9 (00:00) 9.3 10.28 (05:20) 7.22 (16:30) 0 0 0 0 0
04-10-2020 12.4 (15:50) 6 (00:00) 9.2 16.39 (18:20) 10.83 (08:10) 1.6 0 1.2 0 0.4
03-10-2020 10.8 (17:50) 2.6 (00:00) 6.7 15.56 (13:00) 10.28 (12:10) 0 0 0 0 0
02-10-2020 11.7 (05:10) 4.1 (00:00) 7.9 24.44 (07:00) 15.83 (07:00) 21.8 0.8 20.8 0.2 0
01-10-2020 16.3 (16:50) 8.9 (09:30) 12.6 13.61 (23:50) 9.17 (23:59) 0 0 0 0 0

Gráficas

Temp. máximas Temp. mínimas Temp. medias Precipitaciones Rachas de viento máximas Velocidades máximas media en intervalos de 10 minutos

Datos horarios

Fecha y hora oficial Temperatura (ºC) Velocidad del viento (km/h) Dirección del viento Racha (km/h) Dirección de racha Precipitación (mm) Presión (hPa) Tendencia (hPa) Humedad (%)
2020-10-30 23:00:00 11.9 12 Sur 17 Sudeste 0 -- -- 77
2020-10-30 22:00:00 12.5 13 Sudeste 18 Sudeste 0 -- -- 78
2020-10-30 21:00:00 11.1 3 Sudeste 8 Sudeste 0 -- -- 77
2020-10-30 20:00:00 11.2 0 Calma 4 Sudeste 0 -- -- 85
2020-10-30 19:00:00 11.7 0 Calma 4 Sudeste 0 -- -- 79
2020-10-30 18:00:00 15.3 0 Calma 10 Oeste 0 -- -- 68
2020-10-30 17:00:00 16.7 8 Oeste 14 Oeste 0 -- -- 63
2020-10-30 16:00:00 17 8 Oeste 16 Oeste 0 -- -- 58
2020-10-30 15:00:00 16.7 8 Oeste 17 Sudoeste 0 -- -- 59
2020-10-30 14:00:00 16.4 10 Oeste 19 Oeste 0 -- -- 62
2020-10-30 13:00:00 16 9 Oeste 20 Oeste 0 -- -- 60
2020-10-30 12:00:00 15.4 10 Oeste 19 Oeste 0 -- -- 63
2020-10-30 11:00:00 14.4 8 Oeste 14 Sudoeste 0 -- -- 67
2020-10-30 10:00:00 13.6 6 Sudoeste 9 Sudoeste 0 -- -- 72
2020-10-30 09:00:00 11.1 6 Sudoeste 11 Sudoeste 0 -- -- 77
2020-10-30 08:00:00 9.3 8 Sudoeste 11 Sur 0 -- -- 83
2020-10-30 07:00:00 10.2 9 Sur 13 Sur 0 -- -- 80
2020-10-30 06:00:00 9.9 10 Sur 12 Sur 0 -- -- 81
2020-10-30 05:00:00 10.2 8 Sur 10 Sur 0 -- -- 76
2020-10-30 04:00:00 10.4 5 Sur 7 Sur 0 -- -- 78
2020-10-30 03:00:00 9.6 0 Calma 8 Este 0 -- -- 82
2020-10-30 02:00:00 8 0 Calma 7 Este 0 -- -- 86
2020-10-30 01:00:00 8.7 0 Calma -- -- 0 -- -- 91
2020-10-30 00:00:00 9.9 0 Calma 5 Este 0 -- -- 86
2020-10-29 23:00:00 8.9 0 Calma 6 Sudeste 0 -- -- 90
2020-10-29 22:00:00 10.1 5 Sudeste 7 Sudeste 0 -- -- 84
2020-10-29 21:00:00 9.4 4 Sur 7 Sur 0 -- -- 87
2020-10-29 20:00:00 10.8 0 Calma 4 Sur 0 -- -- 85
2020-10-29 19:00:00 10.3 2 Sudeste 6 Norte 0 -- -- 88
2020-10-29 18:00:00 13.7 3 Noroeste 6 Norte 0 -- -- 78
2020-10-29 17:00:00 15.2 4 Norte 10 Oeste 0 -- -- 72
2020-10-29 16:00:00 16.4 6 Oeste 13 Noroeste 0 -- -- 68
2020-10-29 15:00:00 16.3 6 Oeste 12 Sudoeste 0 -- -- 71
2020-10-29 14:00:00 14.8 4 Sur 13 Este 0 -- -- 74
2020-10-29 13:00:00 13 8 Nordeste 18 Nordeste 0 -- -- 78
2020-10-29 12:00:00 11.8 10 Nordeste 17 Nordeste 0 -- -- 81
2020-10-29 11:00:00 10.4 9 Norte 19 Este 0 -- -- 88
2020-10-29 10:00:00 9.8 8 Norte 14 Norte 0 -- -- 89
2020-10-29 09:00:00 8.6 9 Sudeste 18 Sur 0 -- -- 94
2020-10-29 08:00:00 6 4 Este 6 Este 0 -- -- 99
2020-10-29 07:00:00 6.7 0 Calma 6 Sudoeste 0 -- -- 94
2020-10-29 06:00:00 7.8 4 Sur 9 Sudoeste 0 -- -- 95
2020-10-29 05:00:00 8.4 0 Calma 7 Sur 0 -- -- 98
2020-10-29 04:00:00 8.7 0 Calma 6 Sur 0 -- -- 99
2020-10-29 03:00:00 8.9 5 Sudoeste 13 Sudoeste 0 -- -- 100
2020-10-29 02:00:00 9.2 2 Sur 5 Oeste 0 -- -- 100
2020-10-29 01:00:00 9.4 4 Sudoeste 12 Sudoeste 0 -- -- 100
2020-10-29 00:00:00 9.2 7 Sudoeste 13 Sudoeste 0 -- -- 100
2020-10-28 23:00:00 8.9 8 Sudoeste 13 Sudoeste 0 -- -- 100
2020-10-28 22:00:00 9.6 9 Sudoeste 15 Sudoeste 0 -- -- 99
2020-10-28 21:00:00 9.7 8 Sudoeste 15 Sudoeste 0 -- -- 98
2020-10-28 20:00:00 9.6 10 Sudoeste 15 Sudoeste 0 -- -- 97
2020-10-28 19:00:00 9.7 8 Sudoeste 10 Sudoeste 0 -- -- 96
2020-10-28 18:00:00 11.1 7 Sudoeste 20 Oeste 0 -- -- 94
2020-10-28 17:00:00 12 12 Oeste 30 Oeste 0 -- -- 96
2020-10-28 16:00:00 11.9 17 Oeste 27 Sudoeste 0 -- -- 100
2020-10-28 15:00:00 11.7 17 Sudoeste 27 Sudoeste 0 -- -- 100
2020-10-28 14:00:00 11.1 19 Oeste 29 Oeste 0.2 -- -- 100
2020-10-28 13:00:00 11.2 17 Oeste 29 Sudoeste 0 -- -- 100
2020-10-28 12:00:00 11.1 18 Sudoeste 29 Oeste 0 -- -- 100
2020-10-28 11:00:00 10.7 17 Sudoeste 32 Sudoeste 0.2 -- -- 100
2020-10-28 10:00:00 10.2 19 Sudoeste 30 Sudoeste 0 -- -- 100
2020-10-28 09:00:00 9.8 18 Sudoeste 43 Sudoeste 0 -- -- 100
2020-10-28 08:00:00 9.5 25 Sudoeste 39 Oeste 0.2 -- -- 100
2020-10-28 07:00:00 9.6 23 Sudoeste 40 Sudoeste 0.2 -- -- 100
2020-10-28 06:00:00 9.5 17 Sudoeste 30 Sudoeste 0.4 -- -- 100
2020-10-28 05:00:00 9.2 19 Sudoeste 30 Sudoeste 0.2 -- -- 100
2020-10-28 04:00:00 8.7 15 Sudoeste 26 Sudoeste 0.2 -- -- 100
2020-10-28 03:00:00 8.5 14 Sudoeste 26 Sudoeste 0 -- -- 99
2020-10-28 02:00:00 8.2 19 Sudoeste 32 Sudoeste 0 -- -- 98
2020-10-28 01:00:00 8.5 25 Sudoeste 35 Sudoeste 0 -- -- 94
2020-10-28 00:00:00 8.4 25 Sudoeste 36 Sudoeste 0 -- -- 90
2020-10-27 23:00:00 8.3 23 Sudoeste 38 Sudoeste 0 -- -- 92
2020-10-27 22:00:00 7.9 20 Sudoeste 34 Sudoeste 0 -- -- 97
2020-10-27 21:00:00 7.4 17 Sudoeste 30 Sudoeste 0 -- -- 99
2020-10-27 20:00:00 7.2 19 Sudoeste 31 Sudoeste 0 -- -- 97
2020-10-27 19:00:00 7.8 19 Sudoeste 32 Sudoeste 0 -- -- 91
2020-10-27 18:00:00 7.8 19 Sudoeste 33 Oeste 0 -- -- 90
2020-10-27 17:00:00 7.8 21 Sudoeste 32 Sudoeste 0 -- -- 90
2020-10-27 16:00:00 7.6 21 Sudoeste 39 Sudoeste 0 -- -- 90
2020-10-27 15:00:00 7.7 26 Sudoeste 42 Sudoeste 0 -- -- 87
2020-10-27 14:00:00 7.6 24 Sudoeste 41 Sudoeste 0 -- -- 88
2020-10-27 13:00:00 7.2 25 Sudoeste 35 Sudoeste 0 -- -- 89
2020-10-27 12:00:00 6.3 24 Sudoeste 39 Sudoeste 0 -- -- 91
2020-10-27 11:00:00 6.3 27 Sudoeste 43 Sudoeste 0 -- -- 93
2020-10-27 10:00:00 5.2 28 Sudoeste 43 Sudoeste 0 -- -- 98
2020-10-27 09:00:00 4 27 Sudoeste 42 Sudoeste 0 -- -- 100
2020-10-27 08:00:00 3.4 22 Sudoeste 40 Sudoeste 0 -- -- 100
2020-10-27 07:00:00 3.2 23 Sudoeste 37 Sudoeste 0 -- -- 100
2020-10-27 06:00:00 2.9 21 Sudoeste 33 Sudoeste 0 -- -- 100
2020-10-27 05:00:00 3.3 20 Sudoeste 35 Sudoeste 0 -- -- 100
2020-10-27 04:00:00 3.5 22 Sudoeste 34 Sudoeste 0 -- -- 99
2020-10-27 03:00:00 3.5 22 Sudoeste 33 Sudoeste 0 -- -- 99
2020-10-27 02:00:00 3.5 21 Sudoeste 35 Sudoeste 0 -- -- 98
2020-10-27 01:00:00 3.7 23 Sudoeste 34 Sudoeste 0 -- -- 96
2020-10-27 00:00:00 3.7 21 Sudoeste 34 Sudoeste 0 -- -- 95
2020-10-26 23:00:00 3.9 22 Sudoeste 32 Sudoeste 0 -- -- 94
2020-10-26 22:00:00 4.1 19 Sudoeste 31 Sudoeste 0 -- -- 92
2020-10-26 21:00:00 4.7 19 Sudoeste 34 Sudoeste 0 -- -- 89
2020-10-26 20:00:00 5.8 21 Sudoeste 32 Oeste 0 -- -- 84
2020-10-26 19:00:00 5.8 15 Sudoeste 25 Sudoeste 0 -- -- 83
2020-10-26 18:00:00 5.9 17 Oeste 33 Oeste 0 -- -- 79
2020-10-26 17:00:00 6.7 21 Oeste 33 Oeste 0 -- -- 77
2020-10-26 16:00:00 6.5 25 Oeste 37 Oeste 0 -- -- 76
2020-10-26 15:00:00 6.3 21 Oeste 41 Oeste 0.2 -- -- 78
2020-10-26 14:00:00 6.6 22 Oeste 38 Sudoeste 0 -- -- 79
2020-10-26 13:00:00 5.4 26 Oeste 37 Oeste 0 -- -- 87
2020-10-26 12:00:00 4.5 22 Sudoeste 36 Oeste 0 -- -- 94
2020-10-26 11:00:00 3.3 19 Oeste 38 Sudoeste 0 -- -- 99
2020-10-26 10:00:00 2.3 18 Oeste 35 Oeste 0 -- -- 100
2020-10-26 09:00:00 2.1 23 Oeste 37 Oeste 0 -- -- 100
2020-10-26 08:00:00 2.2 26 Oeste 40 Oeste 0 -- -- 100
2020-10-26 07:00:00 2.4 22 Oeste 38 Oeste 0 -- -- 100
2020-10-26 06:00:00 2.6 23 Oeste 44 Oeste 0 -- -- 100
2020-10-26 05:00:00 3 28 Oeste 44 Oeste 0 -- -- 100
2020-10-26 04:00:00 3.2 22 Oeste 43 Oeste 0 -- -- 100
2020-10-26 03:00:00 3.4 25 Oeste 39 Sudoeste 0 -- -- 99
2020-10-26 02:00:00 3.8 23 Oeste 39 Oeste 0 -- -- 99
2020-10-26 01:00:00 3.9 20 Oeste 39 Oeste 0 -- -- 99
2020-10-26 00:00:00 4.1 26 Sudoeste 40 Sudoeste 0 -- -- 99
2020-10-25 23:00:00 4.4 23 Sudoeste 40 Sudoeste 0 -- -- 99
2020-10-25 22:00:00 4.4 20 Sudoeste 38 Oeste 0 -- -- 98
2020-10-25 21:00:00 4.6 18 Oeste 42 Oeste 1 -- -- 97
2020-10-25 20:00:00 6.3 26 Oeste 44 Oeste 0.4 -- -- 97
2020-10-25 19:00:00 7.6 24 Oeste 40 Oeste 0 -- -- 98
2020-10-25 18:00:00 8.7 29 Oeste 59 Oeste 0 -- -- 98
2020-10-25 17:00:00 9.4 36 Sudoeste 58 Sudoeste 2.2 -- -- 98
2020-10-25 16:00:00 9.7 33 Sudoeste 54 Sudoeste 5.6 -- -- 98
2020-10-25 15:00:00 10.3 32 Sudoeste 57 Sudoeste 0.2 -- -- 95
2020-10-25 14:00:00 11.1 33 Sudoeste 63 Sudoeste 0 -- -- 88
2020-10-25 13:00:00 11.4 32 Sudoeste 56 Sudoeste 0 -- -- 78
2020-10-25 12:00:00 10.2 32 Sudoeste 57 Sudoeste 0.4 -- -- 85
2020-10-25 11:00:00 11.5 32 Sudoeste 52 Sudoeste 0 -- -- 70
2020-10-25 10:00:00 10.6 34 Sudoeste 52 Sudoeste 0 -- -- 74
2020-10-25 09:00:00 9.3 34 Sudoeste 56 Sudoeste 0 -- -- 80
2020-10-25 08:00:00 8.7 36 Sudoeste 56 Sudoeste 0 -- -- 80
2020-10-25 07:00:00 9.3 33 Sudoeste 59 Sudoeste 0 -- -- 76
2020-10-25 06:00:00 9.4 33 Sudoeste 56 Sudoeste 0 -- -- 78
2020-10-25 05:00:00 9.1 37 Sudoeste 67 Sudoeste 0 -- -- 79
2020-10-25 04:00:00 8.9 35 Sudoeste 60 Sudoeste 0 -- -- 82
2020-10-25 03:00:00 8.8 36 Sudoeste 58 Sudoeste 0 -- -- 83
2020-10-25 02:00:00 8.4 31 Sudoeste 49 Sudoeste 0 -- -- 83
2020-10-25 01:00:00 8.7 25 Sudoeste 47 Sudoeste 0 -- -- 85
2020-10-25 00:00:00 8.2 29 Sudoeste 44 Sur 0 -- -- 90
2020-10-24 23:00:00 7.6 27 Sudoeste 41 Sudoeste 0 -- -- 93
2020-10-24 22:00:00 8.8 21 Sudoeste 29 Sudoeste 0 -- -- 92
2020-10-24 21:00:00 8.4 11 Sudoeste 17 Sudoeste 0 -- -- 92
2020-10-24 20:00:00 8.6 10 Sudoeste 21 Sudoeste 0 -- -- 88
2020-10-24 19:00:00 10 15 Sudoeste 31 Sudoeste 0 -- -- 80
2020-10-24 18:00:00 11.2 21 Sudoeste 32 Sudoeste 0 -- -- 73
2020-10-24 17:00:00 11.9 21 Sudoeste 30 Sudoeste 0 -- -- 72
2020-10-24 16:00:00 11.9 19 Oeste 31 Sudoeste 0 -- -- 74
2020-10-24 15:00:00 11 18 Sudoeste 29 Sudoeste 0 -- -- 77
2020-10-24 14:00:00 10.8 20 Sudoeste 33 Sudoeste 0 -- -- 79
2020-10-24 13:00:00 9.7 23 Sudoeste 33 Sudoeste 0 -- -- 81
2020-10-24 12:00:00 8.6 21 Sudoeste 32 Sudoeste 0 -- -- 89
2020-10-24 11:00:00 8 22 Sudoeste 33 Sudoeste 0 -- -- 93
2020-10-24 10:00:00 6.7 16 Sudoeste 26 Sudoeste 0 -- -- 100
2020-10-24 09:00:00 5.7 14 Sudoeste 25 Sudoeste 0 -- -- 100
2020-10-24 08:00:00 5.6 15 Sudoeste 26 Sudoeste 0 -- -- 100
2020-10-24 07:00:00 5.6 16 Sudoeste 24 Sudoeste 0 -- -- 100
2020-10-24 06:00:00 5.5 15 Sudoeste 26 Sudoeste 0 -- -- 100
2020-10-24 05:00:00 6 16 Sudoeste 24 Sudoeste 0 -- -- 99
2020-10-24 04:00:00 5.9 11 Sudoeste 24 Sudoeste 0 -- -- 98
2020-10-24 03:00:00 6.2 15 Sudoeste 25 Sudoeste 0 -- -- 97
2020-10-24 02:00:00 6.8 15 Sudoeste 23 Sudoeste 0 -- -- 96
2020-10-24 01:00:00 6.9 13 Sudoeste 22 Sudoeste 0 -- -- 95
2020-10-24 00:00:00 6.8 12 Sudoeste 18 Sudoeste 0 -- -- 95
2020-10-23 23:00:00 6.9 13 Sudoeste 19 Sudoeste 0 -- -- 95
2020-10-23 22:00:00 7.1 13 Sudoeste 18 Sudoeste 0 -- -- 94
2020-10-23 21:00:00 7.7 14 Sudoeste 21 Sudoeste 0 -- -- 93
2020-10-23 20:00:00 7.6 11 Sudoeste 18 Sudoeste 0 -- -- 92
2020-10-23 19:00:00 8.8 11 Sudoeste 27 Sudoeste 0 -- -- 87
2020-10-23 18:00:00 10.1 18 Sudoeste 25 Sudoeste 0.4 -- -- 78
2020-10-23 17:00:00 9.4 15 Oeste 32 Sudoeste 0 -- -- 82
2020-10-23 16:00:00 9.2 18 Sudoeste 34 Oeste 0 -- -- 85
2020-10-23 15:00:00 8.7 22 Oeste 36 Sudoeste 0.4 -- -- 90
2020-10-23 14:00:00 10.2 27 Sudoeste 39 Sudoeste 0 -- -- 83
2020-10-23 13:00:00 7.7 22 Oeste 35 Sudoeste 0 -- -- 97
2020-10-23 12:00:00 7.7 20 Sudoeste 32 Sudoeste 0 -- -- 100
2020-10-23 11:00:00 6.9 22 Sudoeste 32 Sudoeste 0 -- -- 100
2020-10-23 10:00:00 6.6 20 Sudoeste 32 Sudoeste 0.4 -- -- 100
2020-10-23 09:00:00 6.4 17 Sudoeste 29 Sudoeste 0 -- -- 100
2020-10-23 08:00:00 6.5 15 Sudoeste 27 Sudoeste 0 -- -- 99
2020-10-23 07:00:00 6.5 19 Sudoeste 30 Sudoeste 0 -- -- 98
2020-10-23 06:00:00 6.2 18 Sudoeste 28 Sudoeste 0 -- -- 97
2020-10-23 05:00:00 5.9 16 Sudoeste 33 Sudoeste 0 -- -- 97
2020-10-23 04:00:00 6.2 19 Sudoeste 28 Sudoeste 0.2 -- -- 97
2020-10-23 03:00:00 6.9 21 Sudoeste 37 Sudoeste 1.6 -- -- 97
2020-10-23 02:00:00 7.7 27 Sudoeste 42 Sudoeste 2.6 -- -- 95
2020-10-23 01:00:00 8.2 13 Sur 23 Sur 1 -- -- 96
2020-10-23 00:00:00 8.6 15 Sudoeste 23 Sur 0.4 -- -- 97
2020-10-22 23:00:00 9.2 11 Sudoeste 22 Sudoeste 1.4 -- -- 97
2020-10-22 22:00:00 9.7 7 Sudoeste 17 Sudoeste 3.2 -- -- 97
2020-10-22 21:00:00 10 3 Sudeste 8 Este 0 -- -- 96
2020-10-22 20:00:00 10.4 2 Oeste 12 Oeste 0 -- -- 93
2020-10-22 19:00:00 10.9 10 Oeste 32 Oeste 0.2 -- -- 92
2020-10-22 18:00:00 13.7 21 Sudoeste 35 Sudoeste 0 -- -- 68
2020-10-22 17:00:00 14.7 11 Sur 32 Sudoeste 0 -- -- 72
2020-10-22 16:00:00 14.6 15 Sur 28 Sur 0 -- -- 75
2020-10-22 15:00:00 13.7 10 Sur 21 Sudoeste 0 -- -- 82
2020-10-22 14:00:00 11.3 14 Sudoeste 22 Sudoeste 0 -- -- 89
2020-10-22 13:00:00 9.9 16 Sudoeste 35 Sudeste 3.6 -- -- 92
2020-10-22 12:00:00 11.8 21 Sur 37 Sudeste 0 -- -- 86
2020-10-22 11:00:00 11.4 17 Sudeste 26 Sudeste 0.2 -- -- 89
2020-10-22 10:00:00 10.5 18 Sudeste 28 Sur 0 -- -- 91
2020-10-22 09:00:00 9.9 13 Sur 25 Sudeste 0 -- -- 92
2020-10-22 08:00:00 10 16 Sur 27 Sur 0 -- -- 92
2020-10-22 07:00:00 9.5 11 Sur 22 Sudeste 0 -- -- 92
2020-10-22 06:00:00 9.6 14 Sur 29 Sudeste 0 -- -- 94
2020-10-22 05:00:00 9.7 20 Sur 28 Sudeste 0 -- -- 95
2020-10-22 04:00:00 9.5 15 Sur 33 Sudoeste 0.6 -- -- 96
2020-10-22 03:00:00 9.4 14 Sudoeste 21 Sudoeste 3.2 -- -- 98
2020-10-22 02:00:00 8.6 11 Sudoeste 28 Sudoeste 1.8 -- -- 97
2020-10-22 01:00:00 9.5 13 Oeste 39 Sur 0.4 -- -- 94
2020-10-22 00:00:00 11.2 28 Sudeste 42 Sur 0 -- -- 88
2020-10-21 23:00:00 10.9 22 Sudeste 32 Sur 0 -- -- 83
2020-10-21 22:00:00 10.7 14 Sur 30 Sur 0 -- -- 79
2020-10-21 21:00:00 10.8 12 Sur 26 Sudeste 0 -- -- 78
2020-10-21 20:00:00 11.8 17 Sur 30 Sur 0 -- -- 73
2020-10-21 19:00:00 12.9 21 Sudoeste 41 Sudoeste 0 -- -- 67
2020-10-21 18:00:00 13.6 26 Sudoeste 42 Sur 0 -- -- 67
2020-10-21 17:00:00 14 32 Sudoeste 49 Sudoeste 0 -- -- 62
2020-10-21 16:00:00 14.2 25 Sudoeste 57 Sudoeste 0 -- -- 63
2020-10-21 15:00:00 14.3 32 Sudoeste 52 Sudoeste 0 -- -- 63
2020-10-21 14:00:00 14.1 28 Sudoeste 54 Sudoeste 0 -- -- 65
2020-10-21 13:00:00 13.7 19 Sudoeste 51 Sudoeste 0 -- -- 71
2020-10-21 12:00:00 13.5 32 Sudoeste 51 Sudoeste 0 -- -- 67
2020-10-21 11:00:00 12.6 26 Sudoeste 43 Sur 0 -- -- 71
2020-10-21 10:00:00 10.9 18 Sur 31 Sur 0 -- -- 82
2020-10-21 09:00:00 10.4 20 Sur 32 Sur 0 -- -- 84
2020-10-21 08:00:00 10.4 20 Sur 32 Sudeste 0 -- -- 84
2020-10-21 07:00:00 10.3 21 Sur 34 Sur 0 -- -- 83
2020-10-21 06:00:00 10.2 24 Sudoeste 56 Sudoeste 0 -- -- 82
2020-10-21 05:00:00 10.5 37 Sudoeste 62 Sudoeste 0 -- -- 83
2020-10-21 04:00:00 10.3 37 Sudoeste 66 Sudoeste 0 -- -- 87
2020-10-21 03:00:00 11.2 36 Sudoeste 62 Sudoeste 0 -- -- 96
2020-10-21 02:00:00 11.6 33 Sudoeste 96 Oeste 9.4 -- -- 98
2020-10-21 01:00:00 13.2 33 Sur 63 Sur 2.2 -- -- 90
2020-10-21 00:00:00 12.7 35 Sur 70 Sur 1 -- -- 91
2020-10-20 23:00:00 12.9 38 Sur 81 Sur 0 -- -- 84
2020-10-20 22:00:00 12.8 42 Sur 79 Sudeste 0 -- -- 83
2020-10-20 21:00:00 13.6 42 Sur 85 Sur 0 -- -- 77
2020-10-20 20:00:00 14.2 46 Sur 77 Sur 0 -- -- 72
2020-10-20 19:00:00 13.2 41 Sur 76 Sur 0.2 -- -- 79
2020-10-20 18:00:00 12.4 43 Sur 80 Sudeste 1 -- -- 84
2020-10-20 17:00:00 12.5 46 Sur 73 Sudeste 0 -- -- 77
2020-10-20 16:00:00 11.4 40 Sur 64 Sur 0 -- -- 84
2020-10-20 15:00:00 10.5 36 Sur 60 Sudeste 1.8 -- -- 94
2020-10-20 14:00:00 10.6 33 Sur 54 Sudeste 1.8 -- -- 94
2020-10-20 13:00:00 10.7 29 Sur 48 Sur 2.4 -- -- 94
2020-10-20 12:00:00 11.2 33 Sur 49 Sudeste 1 -- -- 91
2020-10-20 11:00:00 11.4 31 Sur 44 Sur 0.4 -- -- 88
2020-10-20 10:00:00 11.6 25 Sur 44 Sur 1 -- -- 88
2020-10-20 09:00:00 11.6 26 Sur 49 Sur 0.4 -- -- 84
2020-10-20 08:00:00 11.7 27 Sur 48 Sur 0.2 -- -- 80
2020-10-20 07:00:00 11.2 29 Sur 59 Sur 1.2 -- -- 80
2020-10-20 06:00:00 13.5 27 Sur 45 Sur 0.2 -- -- 61
2020-10-20 05:00:00 12.3 24 Sur 39 Sur 0.4 -- -- 68
2020-10-20 04:00:00 12.9 22 Sur 41 Sur 0.2 -- -- 65
2020-10-20 03:00:00 13.8 24 Sur 45 Sur 0 -- -- 60
2020-10-20 02:00:00 15.5 26 Sur 44 Sudeste 0 -- -- 48
2020-10-20 01:00:00 15.6 22 Sur 36 Sur 0 -- -- 46
2020-10-20 00:00:00 15.3 19 Sur 39 Sur 0 -- -- 51
2020-10-19 23:00:00 16.2 20 Sur 41 Sur 0 -- -- 43
2020-10-19 22:00:00 16.9 24 Sur 40 Sur 0 -- -- 42
2020-10-19 21:00:00 17 24 Sur 42 Sur 0 -- -- 41
2020-10-19 20:00:00 16.9 26 Sur 44 Sur 0 -- -- 41
2020-10-19 19:00:00 17.3 27 Sur 46 Sur 0 -- -- 40
2020-10-19 18:00:00 18.9 27 Sudoeste 51 Sudoeste 0 -- -- 35
2020-10-19 17:00:00 19.8 30 Sudoeste 57 Sudoeste 0 -- -- 34
2020-10-19 16:00:00 21 39 Sudoeste 65 Sudoeste 0 -- -- 33
2020-10-19 15:00:00 20.6 43 Sudoeste 67 Sur 0 -- -- 33
2020-10-19 14:00:00 20.3 42 Sudoeste 72 Sudoeste 0 -- -- 33
2020-10-19 13:00:00 19.9 21 Sudoeste 33 Sudoeste 0 -- -- 33
2020-10-19 12:00:00 18.2 14 Sur 23 Sudeste 0 -- -- 41
2020-10-19 11:00:00 15.7 15 Sur 25 Sudeste 0 -- -- 43
2020-10-19 10:00:00 13.3 14 Sudeste 25 Sudeste 0 -- -- 45
2020-10-19 09:00:00 12 18 Sudeste 28 Sudeste 0 -- -- 46
2020-10-19 08:00:00 11.4 16 Sudeste 26 Sudeste 0 -- -- 46
2020-10-19 07:00:00 11.5 14 Sudeste 25 Sudeste 0 -- -- 46
2020-10-19 06:00:00 12.1 14 Sudeste 29 Sudeste 0 -- -- 45
2020-10-19 05:00:00 12.2 14 Sudeste 28 Sur 0 -- -- 46
2020-10-19 04:00:00 12.9 16 Sur 26 Sur 0 -- -- 43
2020-10-19 03:00:00 12.2 14 Sur 26 Sur 0 -- -- 45
2020-10-19 02:00:00 13 17 Sur 28 Sudeste 0 -- -- 44
2020-10-19 01:00:00 12 15 Sudeste 28 Sudeste 0 -- -- 50
2020-10-19 00:00:00 12.9 20 Sudeste 27 Sudeste 0 -- -- 47
2020-10-18 23:00:00 12.8 6 Este 19 Este 0 -- -- 54
2020-10-18 22:00:00 10.9 8 Sudeste 12 Sudeste 0 -- -- 62
2020-10-18 21:00:00 11.2 8 Sudeste 13 Sudeste 0 -- -- 60
2020-10-18 20:00:00 9.9 11 Este 13 Este 0 -- -- 65
2020-10-18 19:00:00 14.1 0 Calma 4 Norte 0 -- -- 56
2020-10-18 18:00:00 16.8 0 Calma 9 Noroeste 0 -- -- 43
2020-10-18 17:00:00 16.9 6 Oeste 19 Oeste 0 -- -- 46
2020-10-18 16:00:00 17.9 3 Oeste 12 Este 0 -- -- 46
2020-10-18 15:00:00 17.1 5 Sudeste 16 Nordeste 0 -- -- 46
2020-10-18 14:00:00 16.9 8 Nordeste 17 Nordeste 0 -- -- 47
2020-10-18 13:00:00 15.4 9 Nordeste 15 Nordeste 0 -- -- 51
2020-10-18 12:00:00 15 8 Nordeste 13 Nordeste 0 -- -- 54
2020-10-18 11:00:00 14.1 5 Nordeste 12 Nordeste 0 -- -- 58
2020-10-18 10:00:00 10.9 5 Sudeste 9 Sudeste 0 -- -- 63
2020-10-18 09:00:00 8.6 9 Sudeste 10 Sudeste 0 -- -- 74
2020-10-18 08:00:00 8.4 7 Sudeste 8 Sudeste 0 -- -- 72
2020-10-18 07:00:00 9.8 4 Sudeste 7 Sudeste 0 -- -- 62
2020-10-18 06:00:00 6.9 7 Sudeste 7 Sudeste 0 -- -- 69
2020-10-18 05:00:00 8.1 0 Calma 2 Sudeste 0 -- -- 62
2020-10-18 04:00:00 7.1 0 Calma 12 Sudeste 0 -- -- 62
2020-10-18 03:00:00 7.4 9 Sudeste 12 Sudeste 0 -- -- 59
2020-10-18 02:00:00 7.8 3 Sur 5 Sur 0 -- -- 58
2020-10-18 01:00:00 7.5 3 Sur 4 Sudeste 0 -- -- 57
2020-10-18 00:00:00 9.9 2 Sudeste 5 Sudeste 0 -- -- 48
2020-10-17 23:00:00 8.7 5 Sudeste 6 Sudeste 0 -- -- 55
2020-10-17 22:00:00 7.8 0 Calma -- -- 0 -- -- 60
2020-10-17 21:00:00 9.1 0 Calma 5 Sur 0 -- -- 51
2020-10-17 20:00:00 9.8 5 Sur 10 Oeste 0 -- -- 51
2020-10-17 19:00:00 13.4 5 Oeste 18 Oeste 0 -- -- 43
2020-10-17 18:00:00 14.4 13 Oeste 25 Oeste 0 -- -- 38
2020-10-17 17:00:00 14.7 14 Oeste 26 Oeste 0 -- -- 40
2020-10-17 16:00:00 14.2 15 Oeste 28 Oeste 0 -- -- 42
2020-10-17 15:00:00 13.9 14 Oeste 32 Oeste 0 -- -- 47
2020-10-17 14:00:00 13.1 17 Sudoeste 31 Sudoeste 0 -- -- 49
2020-10-17 13:00:00 12.1 16 Sudoeste 24 Sudoeste 0 -- -- 52
2020-10-17 12:00:00 11.1 14 Sudoeste 24 Sudoeste 0 -- -- 53
2020-10-17 11:00:00 9.7 14 Sudoeste 20 Sudoeste 0 -- -- 55
2020-10-17 10:00:00 7.8 9 Sudoeste 20 Sudoeste 0 -- -- 63
2020-10-17 09:00:00 6.5 10 Sudoeste 17 Sur 0 -- -- 63
2020-10-17 08:00:00 5.7 11 Sudoeste 16 Sudoeste 0 -- -- 64
2020-10-17 07:00:00 5.2 9 Sudoeste 13 Sudoeste 0 -- -- 66
2020-10-17 06:00:00 5 9 Sur 13 Sur 0 -- -- 67
2020-10-17 05:00:00 5.2 11 Sur 14 Sur 0 -- -- 70
2020-10-17 04:00:00 5.4 10 Sur 13 Sur 0 -- -- 70
2020-10-17 03:00:00 5.3 11 Sur 14 Sur 0 -- -- 73
2020-10-17 02:00:00 4.9 9 Sur 12 Sur 0 -- -- 73
2020-10-17 01:00:00 5 7 Sur 8 Sur 0 -- -- 74
2020-10-17 00:00:00 3.1 4 Sudeste 6 Sudeste 0 -- -- 81
2020-10-16 23:00:00 5.1 0 Calma 4 Sudoeste 0 -- -- 71
2020-10-16 22:00:00 6.2 3 Sur 4 Sudoeste 0 -- -- 67
2020-10-16 21:00:00 6.2 3 Sudoeste 4 Sudoeste 0 -- -- 65
2020-10-16 20:00:00 7.2 2 Sudoeste 6 Oeste 0 -- -- 63
2020-10-16 19:00:00 9.3 4 Oeste 15 Oeste 0 -- -- 57
2020-10-16 18:00:00 10.8 6 Oeste 19 Oeste 0 -- -- 53
2020-10-16 17:00:00 10.6 8 Noroeste 18 Noroeste 0 -- -- 53
2020-10-16 16:00:00 10.6 8 Noroeste 23 Noroeste 0 -- -- 50
2020-10-16 15:00:00 9.1 6 Noroeste 19 Noroeste 0 -- -- 60
2020-10-16 14:00:00 8.1 9 Norte 23 Nordeste 0 -- -- 68
2020-10-16 13:00:00 6.9 9 Norte 19 Norte 0 -- -- 67
2020-10-16 12:00:00 6.2 11 Norte 20 Nordeste 0 -- -- 74
2020-10-16 11:00:00 5 7 Norte 12 Norte 0 -- -- 86
2020-10-16 10:00:00 3.3 6 Nordeste 13 Nordeste 0 -- -- 99
2020-10-16 09:00:00 1.3 6 Nordeste 14 Nordeste 0 -- -- 98
2020-10-16 08:00:00 1.3 3 Nordeste 9 Norte 0 -- -- 97
2020-10-16 07:00:00 1.4 4 Nordeste 9 Nordeste 0 -- -- 97
2020-10-16 06:00:00 1.2 4 Este 8 Nordeste 0 -- -- 96
2020-10-16 05:00:00 0.8 2 Nordeste 10 Nordeste 0 -- -- 95
2020-10-16 04:00:00 0.9 2 Este 9 Sur 0 -- -- 95
2020-10-16 03:00:00 0.9 3 Norte 10 Norte 0 -- -- 94
2020-10-16 02:00:00 0.4 4 Este 10 Nordeste 0 -- -- 93
2020-10-16 01:00:00 0.8 6 Este 10 Este 0 -- -- 94
2020-10-16 00:00:00 1.2 5 Nordeste 10 Nordeste 0 -- -- 92
2020-10-15 23:00:00 2 5 Este 21 Nordeste 0 -- -- 89
2020-10-15 22:00:00 3.5 12 Nordeste 22 Nordeste 0 -- -- 84
2020-10-15 21:00:00 4.9 12 Nordeste 27 Nordeste 0 -- -- 79
2020-10-15 20:00:00 6.2 14 Nordeste 26 Nordeste 0 -- -- 74
2020-10-15 19:00:00 7 20 Nordeste 32 Nordeste 0 -- -- 70
2020-10-15 18:00:00 8.8 13 Norte 29 Norte 0 -- -- 62
2020-10-15 17:00:00 8.7 15 Norte 27 Norte 0 -- -- 66
2020-10-15 16:00:00 8.6 11 Norte 23 Norte 0 -- -- 69
2020-10-15 15:00:00 8.7 9 Norte 18 Noroeste 0 -- -- 70
2020-10-15 14:00:00 8.2 10 Noroeste 20 Oeste 0 -- -- 74
2020-10-15 13:00:00 7.9 15 Oeste 24 Oeste 0 -- -- 73
2020-10-15 12:00:00 7.1 13 Oeste 25 Oeste 0 -- -- 79
2020-10-15 11:00:00 5.7 13 Oeste 23 Sudoeste 0 -- -- 87
2020-10-15 10:00:00 4.9 15 Sudoeste 22 Sudoeste 0 -- -- 91
2020-10-15 09:00:00 3.1 8 Sudoeste 15 Sudoeste 0 -- -- 95
2020-10-15 08:00:00 3.1 4 Sudoeste 6 Sudoeste 0 -- -- 95
2020-10-15 07:00:00 3.6 4 Sudoeste 8 Sudoeste 0 -- -- 94
2020-10-15 06:00:00 4 3 Oeste 4 Oeste 0 -- -- 93
2020-10-15 05:00:00 3.6 0 Calma 4 Nordeste 0 -- -- 93
2020-10-15 04:00:00 3.3 0 Calma 6 Nordeste 0 -- -- 92
2020-10-15 03:00:00 2.8 4 Este 14 Nordeste 0 -- -- 93
2020-10-15 02:00:00 2.8 9 Este 15 Este 0 -- -- 93
2020-10-15 01:00:00 2.8 5 Este 10 Este 0 -- -- 93
2020-10-15 00:00:00 3.2 5 Nordeste 17 Nordeste 0 -- -- 92
2020-10-14 23:00:00 3.8 4 Nordeste 12 Nordeste 0 -- -- 90
2020-10-14 22:00:00 4.1 10 Nordeste 18 Nordeste 0 -- -- 87
2020-10-14 21:00:00 5.3 10 Nordeste 17 Nordeste 0 -- -- 81
2020-10-14 20:00:00 6.8 6 Nordeste 16 Nordeste 0 -- -- 75
2020-10-14 19:00:00 8.7 9 Nordeste 25 Noroeste 0 -- -- 69
2020-10-14 18:00:00 10.6 16 Noroeste 27 Noroeste 0 -- -- 50
2020-10-14 17:00:00 10.6 14 Noroeste 33 Oeste 0 -- -- 50
2020-10-14 16:00:00 11.9 17 Oeste 28 Oeste 0 -- -- 52
2020-10-14 15:00:00 9.7 14 Noroeste 27 Oeste 0 -- -- 63
2020-10-14 14:00:00 9.3 13 Noroeste 28 Oeste 0 -- -- 65
2020-10-14 13:00:00 8.2 15 Oeste 27 Oeste 0 -- -- 73
2020-10-14 12:00:00 6.8 9 Oeste 19 Sudoeste 0 -- -- 84
2020-10-14 11:00:00 5.3 9 Oeste 17 Oeste 0 -- -- 93
2020-10-14 10:00:00 4.3 11 Oeste 17 Oeste 0 -- -- 98
2020-10-14 09:00:00 3.1 4 Sudoeste 14 Sudoeste 0 -- -- 98
2020-10-14 08:00:00 3.7 9 Oeste 14 Oeste 0 -- -- 98
2020-10-14 07:00:00 3 5 Sudoeste 7 Sudoeste 0 -- -- 96
2020-10-14 06:00:00 3.6 4 Sudoeste 5 Sudoeste 0 -- -- 94
2020-10-14 05:00:00 4.5 3 Oeste 4 Oeste 0 -- -- 93
2020-10-14 04:00:00 4.6 0 Calma 6 Norte 0 -- -- 92
2020-10-14 03:00:00 5.2 3 Noroeste 8 Norte 0 -- -- 92
2020-10-14 02:00:00 5.7 6 Norte 10 Norte 0 -- -- 92
2020-10-14 01:00:00 6.4 7 Norte 14 Norte 0 -- -- 91
2020-10-14 00:00:00 7 4 Nordeste 15 Noroeste 0 -- -- 90
2020-10-13 23:00:00 7.8 8 Norte 15 Norte 0 -- -- 87
2020-10-13 22:00:00 10.1 8 Norte 25 Noroeste 0 -- -- 78
2020-10-13 21:00:00 12.2 8 Sudoeste 13 Oeste 0 -- -- 62
2020-10-13 20:00:00 12.7 6 Sudoeste 17 Oeste 0 -- -- 57
2020-10-13 19:00:00 14.5 10 Oeste 32 Oeste 0 -- -- 49
2020-10-13 18:00:00 15.3 6 Oeste 17 Oeste 0 -- -- 64
2020-10-13 17:00:00 14.9 11 Noroeste 30 Oeste 0 -- -- 66
2020-10-13 16:00:00 15.1 15 Oeste 27 Oeste 0 -- -- 68
2020-10-13 15:00:00 13.6 14 Oeste 23 Sudoeste 0 -- -- 75
2020-10-13 14:00:00 12 14 Oeste 24 Oeste 0 -- -- 79
2020-10-13 13:00:00 9.9 13 Sudoeste 22 Oeste 0 -- -- 88
2020-10-13 12:00:00 9.3 13 Sudoeste 21 Sudoeste 0 -- -- 90
2020-10-13 11:00:00 9.4 13 Sudoeste 22 Oeste 0 -- -- 85
2020-10-13 10:00:00 9 13 Sudoeste 18 Sudoeste 0 -- -- 85
2020-10-13 09:00:00 8.1 12 Sudoeste 18 Sudoeste 0 -- -- 84
2020-10-13 08:00:00 7.3 12 Sudoeste 21 Sudoeste 0 -- -- 82
2020-10-13 07:00:00 7.5 16 Sudoeste 23 Sudoeste 0 -- -- 78
2020-10-13 06:00:00 8 15 Sudoeste 25 Sudoeste 0 -- -- 73
2020-10-13 05:00:00 8.6 17 Sudoeste 29 Sudoeste 0 -- -- 69
2020-10-13 04:00:00 -- -- -- -- -- -- -- -- --
2020-10-13 03:00:00 8.4 22 Sudoeste 37 Sudoeste 0 -- -- 61
2020-10-13 02:00:00 8.7 21 Sudoeste 36 Sudoeste 0 -- -- 61
2020-10-13 01:00:00 -- -- -- -- -- -- -- -- --
2020-10-13 00:00:00 8.9 17 Sudoeste 27 Sudoeste 0 -- -- 61
2020-10-12 23:00:00 8.8 18 Sudoeste 26 Sudoeste 0 -- -- 61
2020-10-12 22:00:00 9 14 Sudoeste 19 Sudoeste 0 -- -- 61
2020-10-12 21:00:00 8.4 10 Sudoeste 15 Sudoeste 0 -- -- 65
2020-10-12 20:00:00 10 4 Oeste 13 Noroeste 0 -- -- 62
2020-10-12 19:00:00 12.1 10 Noroeste 24 Norte 0 -- -- 55
2020-10-12 18:00:00 12.7 12 Noroeste 25 Norte 0 -- -- 52
2020-10-12 17:00:00 12.4 14 Norte 26 Norte 0 -- -- 54
2020-10-12 16:00:00 11.7 17 Norte 29 Noroeste 0 -- -- 56
2020-10-12 15:00:00 10.9 10 Norte 26 Norte 0 -- -- 62
2020-10-12 14:00:00 9.9 13 Norte 24 Noroeste 0 -- -- 69
2020-10-12 13:00:00 8.6 14 Nordeste 25 Norte 0 -- -- 71
2020-10-12 12:00:00 7.2 12 Norte 22 Nordeste 0 -- -- 84
2020-10-12 11:00:00 6.2 13 Norte 22 Norte 0 -- -- 89
2020-10-12 10:00:00 4.8 8 Norte 18 Norte 0 -- -- 95
2020-10-12 09:00:00 3.8 4 Norte 16 Norte 0 -- -- 96
2020-10-12 08:00:00 3.6 4 Noroeste 15 Norte 0 -- -- 97
2020-10-12 07:00:00 3.5 5 Norte 10 Norte 0 -- -- 98
2020-10-12 06:00:00 2.9 7 Nordeste 12 Norte 0 -- -- 97
2020-10-12 05:00:00 2.9 8 Nordeste 13 Norte 0 -- -- 95
2020-10-12 04:00:00 -- -- -- -- -- -- -- -- --
2020-10-12 03:00:00 3.8 5 Norte 22 Norte 0 -- -- 93
2020-10-12 02:00:00 3.7 6 Norte 19 Nordeste 0 -- -- 93
2020-10-12 01:00:00 4 10 Nordeste 26 Nordeste 0 -- -- 92
2020-10-12 00:00:00 4.3 12 Nordeste 28 Nordeste 0 -- -- 90
2020-10-11 23:00:00 4.7 16 Nordeste 30 Nordeste 0 -- -- 87
2020-10-11 22:00:00 5.1 13 Nordeste 26 Nordeste 0 -- -- 83
2020-10-11 21:00:00 -- -- -- -- -- -- -- -- --
2020-10-11 20:00:00 -- -- -- -- -- -- -- -- --
2020-10-11 19:00:00 9 18 Norte 41 Norte 0 -- -- 62
2020-10-11 18:00:00 10.5 19 Norte 37 Norte 0 -- -- 57
2020-10-11 17:00:00 10.7 22 Norte 37 Norte 0 -- -- 57
2020-10-11 16:00:00 11.1 21 Norte 37 Nordeste 0 -- -- 59
2020-10-11 15:00:00 10.5 24 Norte 41 Norte 0 -- -- 61
2020-10-11 14:00:00 9.7 18 Norte 36 Norte 0 -- -- 64
2020-10-11 13:00:00 9.1 18 Norte 35 Nordeste 0 -- -- 69
2020-10-11 12:00:00 8.5 22 Nordeste 42 Nordeste 0 -- -- 67
2020-10-11 11:00:00 7 21 Nordeste 31 Nordeste 0 -- -- 74
2020-10-11 10:00:00 5.3 17 Norte 27 Nordeste 0 -- -- 86
2020-10-11 09:00:00 3.4 5 Nordeste 18 Nordeste 0 -- -- 95
2020-10-11 08:00:00 3 8 Nordeste 20 Nordeste 0 -- -- 97
2020-10-11 07:00:00 3.5 4 Nordeste 11 Norte 0 -- -- 96
2020-10-11 06:00:00 4.2 4 Nordeste 9 Norte 0 -- -- 96
2020-10-11 05:00:00 3.9 0 Calma 10 Norte 0 -- -- 96
2020-10-11 04:00:00 4.1 3 Este 10 Este 0 -- -- 96
2020-10-11 03:00:00 4.6 6 Nordeste 20 Nordeste 0 -- -- 96
2020-10-11 02:00:00 4.7 10 Nordeste 15 Nordeste 0 -- -- 96
2020-10-11 01:00:00 5.1 7 Nordeste 20 Norte 0 -- -- 93
2020-10-11 00:00:00 5.1 6 Nordeste 14 Nordeste 0 -- -- 90
2020-10-10 23:00:00 6.2 9 Nordeste 19 Norte 0 -- -- 86
2020-10-10 22:00:00 7 9 Nordeste 16 Norte 0 -- -- 82
2020-10-10 21:00:00 7.9 9 Nordeste 19 Norte 0 -- -- 77
2020-10-10 20:00:00 9.4 15 Nordeste 33 Norte 0 -- -- 70
2020-10-10 19:00:00 11.5 13 Norte 31 Nordeste 0 -- -- 66
2020-10-10 18:00:00 13.2 17 Norte 33 Norte 0 -- -- 67
2020-10-10 17:00:00 14.6 20 Norte 33 Norte 0 -- -- 68
2020-10-10 16:00:00 16.2 11 Norte 24 Noroeste 0 -- -- 62
2020-10-10 15:00:00 16.1 14 Nordeste 27 Norte 0 -- -- 62
2020-10-10 14:00:00 15.5 14 Norte 28 Norte 0 -- -- 67
2020-10-10 13:00:00 15.8 9 Nordeste 25 Nordeste 0 -- -- 70
2020-10-10 12:00:00 14.2 12 Nordeste 23 Nordeste 0 -- -- 78
2020-10-10 11:00:00 13.9 13 Nordeste 20 Nordeste 0 -- -- 77
2020-10-10 10:00:00 11.3 12 Este 22 Este 0 -- -- 93
2020-10-10 09:00:00 8.7 14 Este 20 Este 0 -- -- 99
2020-10-10 08:00:00 9.6 13 Este 19 Este 0 -- -- 98
2020-10-10 07:00:00 8.2 9 Nordeste 14 Nordeste 0 -- -- 97
2020-10-10 06:00:00 9.5 9 Norte 14 Nordeste 0 -- -- 89
2020-10-10 05:00:00 10.2 6 Este 8 Este 0 -- -- 83
2020-10-10 04:00:00 10.9 3 Nordeste 8 Este 0 -- -- 93
2020-10-10 03:00:00 10.7 0 Calma 11 Norte 0 -- -- 85
2020-10-10 02:00:00 13.6 6 Este 15 Noroeste 0 -- -- 64
2020-10-10 01:00:00 13.6 7 Este 9 Sudeste 0 -- -- 64
2020-10-10 00:00:00 12.3 5 Este 8 Sudeste 0 -- -- 68
2020-10-09 23:00:00 15.5 2 Nordeste 10 Noroeste 0 -- -- 54
2020-10-09 22:00:00 16.3 0 Calma 4 Sur 0 -- -- 50
2020-10-09 21:00:00 15.9 2 Sudoeste 4 Oeste 0 -- -- 56
2020-10-09 20:00:00 18.6 0 Calma 6 Noroeste 0 -- -- 51
2020-10-09 19:00:00 20.6 6 Noroeste 14 Oeste 0 -- -- 47
2020-10-09 18:00:00 21.7 11 Oeste 20 Oeste 0 -- -- 41
2020-10-09 17:00:00 21.6 11 Oeste 23 Oeste 0 -- -- 40
2020-10-09 16:00:00 21.3 8 Noroeste 22 Oeste 0 -- -- 44
2020-10-09 15:00:00 20.9 13 Oeste 22 Oeste 0 -- -- 45
2020-10-09 14:00:00 20.7 12 Sudoeste 24 Oeste 0 -- -- 48
2020-10-09 13:00:00 20.1 14 Sudoeste 23 Sudoeste 0 -- -- 48
2020-10-09 12:00:00 19.6 13 Sudoeste 21 Sudoeste 0 -- -- 53
2020-10-09 11:00:00 18 11 Sudoeste 18 Sudoeste 0 -- -- 57
2020-10-09 10:00:00 16.2 12 Sudoeste 20 Sudoeste 0 -- -- 61
2020-10-09 09:00:00 14.2 15 Sur 22 Sur 0 -- -- 62
2020-10-09 08:00:00 14.1 12 Sudoeste 18 Sur 0 -- -- 64
2020-10-09 07:00:00 13.8 12 Sudoeste 15 Sur 0 -- -- 65
2020-10-09 06:00:00 13.8 7 Oeste 16 Sudoeste 0 -- -- 66
2020-10-09 05:00:00 14.4 9 Sudoeste 14 Sudoeste 0 -- -- 64
2020-10-09 04:00:00 15 5 Sur 10 Sur 0 -- -- 62
2020-10-09 03:00:00 14.4 6 Sudeste 8 Sudeste 0 -- -- 61
2020-10-09 02:00:00 15.7 12 Sudeste 13 Sudeste 0 -- -- 55
2020-10-09 01:00:00 16 10 Sudeste 13 Sudeste 0 -- -- 55
2020-10-09 00:00:00 15.9 9 Sudeste 11 Sudeste 0 -- -- 55
2020-10-08 23:00:00 14.4 8 Sudeste 14 Sudeste 0 -- -- 61
2020-10-08 22:00:00 14.8 6 Sudeste 15 Sudeste 0 -- -- 61
2020-10-08 21:00:00 14.5 4 Este 8 Este 0 -- -- 62
2020-10-08 20:00:00 16.6 0 Calma 7 Noroeste 0 -- -- 56
2020-10-08 19:00:00 19.9 6 Noroeste 18 Oeste 0 -- -- 46
2020-10-08 18:00:00 20.9 10 Noroeste 20 Oeste 0 -- -- 43
2020-10-08 17:00:00 21.1 10 Noroeste 17 Oeste 0 -- -- 44
2020-10-08 16:00:00 20.7 10 Oeste 22 Oeste 0 -- -- 44
2020-10-08 15:00:00 21 14 Oeste 23 Oeste 0 -- -- 46
2020-10-08 14:00:00 19.9 16 Sudoeste 32 Sudoeste 0 -- -- 56
2020-10-08 13:00:00 20.2 19 Sudoeste 30 Sudoeste 0 -- -- 52
2020-10-08 12:00:00 18.8 8 Oeste 16 Sudoeste 0 -- -- 64
2020-10-08 11:00:00 19.1 9 Oeste 16 Oeste 0 -- -- 60
2020-10-08 10:00:00 17.5 7 Sudoeste 11 Sur 0 -- -- 67
2020-10-08 09:00:00 15.3 10 Sur 14 Sur 0 -- -- 69
2020-10-08 08:00:00 15.1 10 Sur 19 Sudeste 0 -- -- 69
2020-10-08 07:00:00 14.6 15 Sudeste 19 Sudeste 0 -- -- 74
2020-10-08 06:00:00 14 8 Sudeste 13 Sudeste 0 -- -- 77
2020-10-08 05:00:00 13.9 9 Sudeste 12 Sudeste 0 -- -- 79
2020-10-08 04:00:00 13.4 9 Sudeste 12 Sudeste 0 -- -- 82
2020-10-08 03:00:00 13.5 10 Sudeste 13 Este 0 -- -- 82
2020-10-08 02:00:00 13.4 10 Sudeste 12 Sudeste 0 -- -- 82
2020-10-08 01:00:00 13 9 Este 13 Este 0 -- -- 82
2020-10-08 00:00:00 13 10 Este 12 Este 0 -- -- 82
2020-10-07 23:00:00 13 10 Este 11 Este 0 -- -- 83
2020-10-07 22:00:00 13.5 9 Sudeste 10 Este 0 -- -- 81
2020-10-07 21:00:00 14 8 Este 10 Este 0 -- -- 80
2020-10-07 20:00:00 16 4 Este 9 Nordeste 0 -- -- 73
2020-10-07 19:00:00 18.5 5 Nordeste 9 Noroeste 0 -- -- 65
2020-10-07 18:00:00 20.1 6 Noroeste 14 Nordeste 0 -- -- 58
2020-10-07 17:00:00 20 4 Norte 16 Oeste 0 -- -- 61
2020-10-07 16:00:00 19.4 6 Oeste 14 Oeste 0 -- -- 64
2020-10-07 15:00:00 18.4 6 Oeste 13 Oeste 0 -- -- 68
2020-10-07 14:00:00 17.4 8 Noroeste 16 Oeste 0 -- -- 70
2020-10-07 13:00:00 16.4 6 Oeste 14 Oeste 0 -- -- 75
2020-10-07 12:00:00 15.5 9 Oeste 21 Noroeste 0 -- -- 78
2020-10-07 11:00:00 14.1 9 Sudoeste 18 Sudoeste 0 -- -- 81
2020-10-07 10:00:00 12.5 11 Sudoeste 17 Sudoeste 0 -- -- 87
2020-10-07 09:00:00 10.4 12 Sudoeste 15 Sudoeste 0 -- -- 93
2020-10-07 08:00:00 9.9 11 Sudoeste 18 Sudoeste 0 -- -- 94
2020-10-07 07:00:00 10.1 12 Sudoeste 17 Sudoeste 0 -- -- 91
2020-10-07 06:00:00 10.3 11 Sudoeste 19 Sudoeste 0 -- -- 89
2020-10-07 05:00:00 10.4 12 Sudoeste 19 Sudoeste 0 -- -- 87
2020-10-07 04:00:00 10.8 11 Sudoeste 22 Sudoeste 0 -- -- 91
2020-10-07 03:00:00 11.2 14 Sudoeste 22 Sudoeste 0 -- -- 88
2020-10-07 02:00:00 12.1 16 Sudoeste 24 Sudoeste 0 -- -- 85
2020-10-07 01:00:00 12.4 14 Sudoeste 22 Sudoeste 0 -- -- 83
2020-10-07 00:00:00 13 14 Sudoeste 23 Oeste 0 -- -- 81
2020-10-06 23:00:00 13.9 15 Sudoeste 26 Sudoeste 0 -- -- 79
2020-10-06 22:00:00 14.2 14 Sudoeste 25 Sudoeste 0 -- -- 81
2020-10-06 21:00:00 14.5 15 Sudoeste 22 Sudoeste 0 -- -- 81
2020-10-06 20:00:00 15.6 14 Sudoeste 21 Oeste 0 -- -- 77
2020-10-06 19:00:00 17.1 13 Oeste 29 Oeste 0 -- -- 73
2020-10-06 18:00:00 18.1 15 Oeste 37 Oeste 0 -- -- 71
2020-10-06 17:00:00 18.3 23 Oeste 35 Oeste 0 -- -- 73
2020-10-06 16:00:00 16.2 14 Oeste 31 Sudoeste 0 -- -- 83
2020-10-06 15:00:00 15 21 Sudoeste 32 Sudoeste 0 -- -- 87
2020-10-06 14:00:00 13.7 22 Sudoeste 31 Sudoeste 0 -- -- 93
2020-10-06 13:00:00 13.3 21 Sudoeste 35 Sudoeste 0 -- -- 97
2020-10-06 12:00:00 11.8 24 Sudoeste 36 Sudoeste 0 -- -- 100
2020-10-06 11:00:00 11.2 22 Sudoeste 39 Sudoeste 0 -- -- 100
2020-10-06 10:00:00 10.7 23 Sudoeste 45 Sudoeste 0 -- -- 100
2020-10-06 09:00:00 10.6 21 Sudoeste 31 Sudoeste 0 -- -- 100
2020-10-06 08:00:00 10.7 17 Sudoeste 32 Sudoeste 0 -- -- 99
2020-10-06 07:00:00 10.6 21 Sudoeste 31 Sudoeste 0 -- -- 98
2020-10-06 06:00:00 10.7 23 Sudoeste 36 Sudoeste 0 -- -- 96
2020-10-06 05:00:00 10.9 21 Sudoeste 33 Sudoeste 0 -- -- 94
2020-10-06 04:00:00 11.1 21 Sudoeste 32 Sudoeste 0 -- -- 92
2020-10-06 03:00:00 11.1 18 Sudoeste 35 Sudoeste 0 -- -- 87
2020-10-06 02:00:00 11.3 21 Sudoeste 35 Sudoeste 0 -- -- 84
2020-10-06 01:00:00 11.2 20 Sudoeste 32 Sudoeste 0 -- -- 82
2020-10-06 00:00:00 11.2 23 Sudoeste 35 Sudoeste 0 -- -- 79
2020-10-05 23:00:00 11.1 22 Sudoeste 34 Sudoeste 0 -- -- 76
2020-10-05 22:00:00 11.4 21 Sudoeste 33 Sudoeste 0 -- -- 72
2020-10-05 21:00:00 10.9 17 Sudoeste 23 Sudoeste 0 -- -- 65
2020-10-05 20:00:00 11.2 12 Sudoeste 26 Oeste 0 -- -- 64
2020-10-05 19:00:00 13.1 21 Oeste 34 Sudoeste 0 -- -- 53
2020-10-05 18:00:00 13.6 22 Sudoeste 37 Oeste 0 -- -- 52
2020-10-05 17:00:00 13.4 23 Oeste 37 Oeste 0 -- -- 54
2020-10-05 16:00:00 12.6 23 Oeste 35 Oeste 0 -- -- 58
2020-10-05 15:00:00 12 20 Oeste 29 Oeste 0 -- -- 59
2020-10-05 14:00:00 11.2 17 Oeste 28 Sudoeste 0 -- -- 66
2020-10-05 13:00:00 10.4 17 Oeste 32 Oeste 0 -- -- 75
2020-10-05 12:00:00 8.3 17 Oeste 28 Oeste 0 -- -- 88
2020-10-05 11:00:00 6.3 17 Sudoeste 31 Sudoeste 0 -- -- 100
2020-10-05 10:00:00 5.5 19 Sudoeste 33 Sudoeste 0 -- -- 100
2020-10-05 09:00:00 5.4 17 Sudoeste 34 Oeste 0 -- -- 100
2020-10-05 08:00:00 5.3 21 Oeste 37 Oeste 0 -- -- 99
2020-10-05 07:00:00 5 22 Sudoeste 36 Oeste 0 -- -- 99
2020-10-05 06:00:00 4.9 21 Sudoeste 37 Oeste 0 -- -- 98
2020-10-05 05:00:00 5.3 20 Sudoeste 33 Sudoeste 0 -- -- 97
2020-10-05 04:00:00 5.6 23 Sudoeste 34 Sudoeste 0 -- -- 96
2020-10-05 03:00:00 6.4 19 Oeste 32 Oeste 0 -- -- 94
2020-10-05 02:00:00 6.8 20 Oeste 31 Oeste 0 -- -- 94
2020-10-05 01:00:00 7.3 23 Oeste 34 Oeste 0 -- -- 89
2020-10-05 00:00:00 7.4 20 Oeste 32 Sudoeste 0 -- -- 90
2020-10-04 23:00:00 7.1 17 Oeste 29 Oeste 0 -- -- 90
2020-10-04 22:00:00 7.9 17 Oeste 41 Oeste 0.2 -- -- 88
2020-10-04 21:00:00 8.3 23 Oeste 42 Oeste 0 -- -- 84
2020-10-04 20:00:00 9.2 24 Oeste 49 Oeste 0 -- -- 79
2020-10-04 19:00:00 10.1 27 Oeste 59 Sudoeste 0.2 -- -- 71
2020-10-04 18:00:00 11.1 29 Oeste 51 Oeste 0 -- -- 66
2020-10-04 17:00:00 11.4 32 Oeste 50 Sudoeste 0 -- -- 62
2020-10-04 16:00:00 12.3 32 Oeste 51 Sudoeste 0 -- -- 62
2020-10-04 15:00:00 10.5 29 Oeste 48 Oeste 0 -- -- 67
2020-10-04 14:00:00 11.4 32 Oeste 49 Oeste 0 -- -- 70
2020-10-04 13:00:00 9.4 31 Oeste 47 Oeste 0 -- -- 83
2020-10-04 12:00:00 7.9 26 Oeste 52 Sudoeste 0 -- -- 99
2020-10-04 11:00:00 7.4 30 Sudoeste 50 Sudoeste 0.4 -- -- 99
2020-10-04 10:00:00 6.4 26 Sudoeste 53 Sudoeste 0.6 -- -- 99
2020-10-04 09:00:00 6.1 33 Sudoeste 55 Sudoeste 0.2 -- -- 98
2020-10-04 08:00:00 6 37 Sudoeste 54 Sudoeste 0 -- -- 95
2020-10-04 07:00:00 6 29 Sudoeste 46 Sudoeste 0 -- -- 95
2020-10-04 06:00:00 6.1 26 Sudoeste 49 Oeste 0 -- -- 93
2020-10-04 05:00:00 6.3 28 Sudoeste 51 Sudoeste 0 -- -- 92
2020-10-04 04:00:00 6.3 27 Sudoeste 41 Sudoeste 0 -- -- 92
2020-10-04 03:00:00 6.5 24 Sudoeste 46 Oeste 0 -- -- 90
2020-10-04 02:00:00 6.6 23 Sudoeste 38 Sudoeste 0 -- -- 86
2020-10-04 01:00:00 7.2 24 Sudoeste 44 Sudoeste 0 -- -- 81
2020-10-04 00:00:00 7.6 21 Oeste 37 Oeste 0 -- -- 77
2020-10-03 23:00:00 8 23 Oeste 35 Oeste 0 -- -- 72
2020-10-03 22:00:00 8.4 24 Oeste 41 Oeste 0 -- -- 68
2020-10-03 21:00:00 8.6 26 Oeste 43 Oeste 0 -- -- 64
2020-10-03 20:00:00 8.8 26 Sudoeste 42 Sudoeste 0 -- -- 64
2020-10-03 19:00:00 9.8 32 Oeste 46 Oeste 0 -- -- 61
2020-10-03 18:00:00 10.2 28 Sudoeste 46 Oeste 0 -- -- 60
2020-10-03 17:00:00 10.7 31 Oeste 50 Oeste 0 -- -- 59
2020-10-03 16:00:00 10 27 Oeste 51 Sudoeste 0 -- -- 62
2020-10-03 15:00:00 10.4 26 Oeste 49 Sudoeste 0 -- -- 64
2020-10-03 14:00:00 9 30 Oeste 56 Sudoeste 0 -- -- 69
2020-10-03 13:00:00 9 35 Oeste 56 Sudoeste 0 -- -- 70
2020-10-03 12:00:00 6.9 33 Oeste 53 Oeste 0 -- -- 77
2020-10-03 11:00:00 5.5 32 Sudoeste 49 Oeste 0 -- -- 91
2020-10-03 10:00:00 3.7 28 Sudoeste 50 Sudoeste 0 -- -- 98
2020-10-03 09:00:00 3.1 26 Sudoeste 45 Sudoeste 0 -- -- 99
2020-10-03 08:00:00 2.6 27 Sudoeste 41 Sudoeste 0 -- -- 98
2020-10-03 07:00:00 2.6 25 Sudoeste 44 Sudoeste 0 -- -- 98
2020-10-03 06:00:00 2.9 30 Sudoeste 45 Sudoeste 0 -- -- 97
2020-10-03 05:00:00 3.2 31 Sudoeste 48 Sudoeste 0 -- -- 97
2020-10-03 04:00:00 3.7 30 Sudoeste 47 Sudoeste 0 -- -- 97
2020-10-03 03:00:00 3.7 25 Sudoeste 48 Sudoeste 0 -- -- 96
2020-10-03 02:00:00 3.7 27 Sudoeste 41 Sudoeste 0 -- -- 94
2020-10-03 01:00:00 4 28 Oeste 45 Oeste 0 -- -- 91
2020-10-03 00:00:00 4.1 27 Oeste 48 Oeste 0 -- -- 88
2020-10-02 23:00:00 5.3 25 Oeste 44 Sudoeste 0 -- -- 79
2020-10-02 22:00:00 4.7 19 Oeste 38 Oeste 0 -- -- 80
2020-10-02 21:00:00 5.3 19 Oeste 37 Oeste 0 -- -- 76
2020-10-02 20:00:00 6.3 22 Oeste 49 Oeste 0 -- -- 69
2020-10-02 19:00:00 8.5 31 Oeste 51 Noroeste 0 -- -- 59
2020-10-02 18:00:00 8.6 28 Oeste 60 Oeste 0 -- -- 57
2020-10-02 17:00:00 8.1 28 Noroeste 60 Oeste 0 -- -- 59
2020-10-02 16:00:00 8.1 30 Noroeste 58 Oeste 0 -- -- 63
2020-10-02 15:00:00 7.8 36 Oeste 61 Oeste 0 -- -- 66
2020-10-02 14:00:00 6.5 36 Oeste 59 Oeste 0 -- -- 75
2020-10-02 13:00:00 6.6 29 Oeste 50 Noroeste 0.2 -- -- 96
2020-10-02 12:00:00 5.3 28 Oeste 60 Oeste 0.6 -- -- 100
2020-10-02 11:00:00 6.2 30 Noroeste 66 Oeste 4.8 -- -- 100
2020-10-02 10:00:00 9 41 Oeste 65 Sudoeste 1 -- -- 100
2020-10-02 09:00:00 9.5 40 Oeste 75 Sudoeste 10.4 -- -- 100
2020-10-02 08:00:00 10.9 51 Sudoeste 87 Sudoeste 3.2 -- -- 98
2020-10-02 07:00:00 11.3 57 Sudoeste 88 Sudoeste 0.8 -- -- 96
2020-10-02 06:00:00 11.1 46 Sudoeste 75 Sudoeste 0.8 -- -- 94
2020-10-02 05:00:00 11.4 39 Sudoeste 72 Sudoeste 0 -- -- 86
2020-10-02 04:00:00 11.1 46 Sudoeste 69 Sudoeste 0 -- -- 84
2020-10-02 03:00:00 10.3 38 Sudoeste 62 Sudoeste 0 -- -- 85
2020-10-02 02:00:00 10.5 39 Sudoeste 63 Sudoeste 0 -- -- 80
2020-10-02 01:00:00 11.1 35 Sudoeste 54 Sudoeste 0 -- -- 78
2020-10-02 00:00:00 11.4 33 Sudoeste 49 Sudoeste 0 -- -- 72
2020-10-01 23:00:00 11.8 30 Sudoeste 45 Sudoeste 0 -- -- 66
2020-10-01 22:00:00 12.1 30 Sudoeste 42 Sudoeste 0 -- -- 65
2020-10-01 21:00:00 12.2 24 Sudoeste 38 Sudoeste 0 -- -- 65
2020-10-01 20:00:00 13.1 24 Sudoeste 44 Sudoeste 0 -- -- 60
2020-10-01 19:00:00 14.6 27 Oeste 44 Oeste 0 -- -- 56
2020-10-01 18:00:00 15.7 23 Oeste 39 Sudoeste 0 -- -- 54
2020-10-01 17:00:00 16.3 24 Oeste 40 Sudoeste 0 -- -- 55
2020-10-01 16:00:00 15.1 26 Oeste 42 Sudoeste 0 -- -- 59
2020-10-01 15:00:00 13.8 21 Sudoeste 32 Sudoeste 0 -- -- 75
2020-10-01 14:00:00 11.4 17 Oeste 30 Sudoeste 0 -- -- 88
2020-10-01 13:00:00 9.6 17 Sudoeste 33 Sudoeste 0 -- -- 97
2020-10-01 12:00:00 9.1 18 Oeste 31 Oeste 0 -- -- 99
2020-10-01 11:00:00 9 22 Sudoeste 36 Sudoeste 0 -- -- 98
2020-10-01 10:00:00 8.9 18 Sudoeste 27 Sudoeste 0 -- -- 97
2020-10-01 09:00:00 9 19 Sudoeste 35 Sudoeste 0 -- -- 97
2020-10-01 08:00:00 9.2 22 Sudoeste 34 Sudoeste 0 -- -- 96
2020-10-01 07:00:00 9.2 23 Sudoeste 40 Sudoeste 0 -- -- 94
2020-10-01 06:00:00 10 25 Sudoeste 40 Sudoeste 0 -- -- 94
2020-10-01 05:00:00 10.6 25 Sudoeste 39 Sudoeste 0 -- -- 89
2020-10-01 04:00:00 11.4 26 Sudoeste 39 Sudoeste 0 -- -- 81
2020-10-01 03:00:00 12.2 22 Sudoeste 33 Sudoeste 0 -- -- 69
2020-10-01 02:00:00 13.3 21 Sudoeste 30 Sudoeste 0 -- -- 60
2020-10-01 01:00:00 13.9 16 Sudoeste 25 Sudoeste 0 -- -- 55
2020-10-01 00:00:00 15 14 Sudoeste 24 Sudoeste 0 -- -- 53